KAXH

Houston-Southwest Airport

Houston, Texas, USA
METAR KAXH 241955Z AUTO 19012G18KT 10SM SCT028 BKN034 BKN049 26/20 A2990 RMK AO2 T02570198
Observed Flight Rules
Feb-24 @ 19:55 UTC (19 minutes ago) Visual Flight Rules
Wind Visibility Clouds
190° at 12 knots
 Gusting to 18 knots
10 miles
  • Scattered at 2,800' AGL
  • Broken at 3,400' AGL
  • Broken at 4,900' AGL
Temperatures Readings
Current 26°C / 79°F
Dewpoint 20°C / 68°F
Humidity 70%
Altimeter 29.9" Hg
Pressure 1013 hPa
Elevation 21
METAR KAXH 241955Z AUTO 19012G18KT 10SM SCT028 BKN034 BKN049 26/20 A2990 RMK AO2 T02570198
Observed Flight Rules
Feb-24 @ 19:55 UTC
(19 minutes ago)
VFR
Wind Visibility
190° at 12 knots
 Gusting to 18 knots
10 miles
Clouds
  • Scattered at 2,800' AGL
  • Broken at 3,400' AGL
  • Broken at 4,900' AGL
Temperature Dewpoint
26°C / 79°F 20°C / 68°F
Humidity Altimeter Pressure
70% 29.9" Hg 1013 hPa